Bouzas — EAPC — position and weather

sailwx.info

Track history (hours):
 
Tides and Currents Weather Stations Pressure Air Temp Water Temp Dewpoint Dewpoint Depression Visibility Wind Speed Wind Dir Waves Ship Positions

Bouzas

Last reported at 2014-Dec-21 01:28 UTC. Time now 2014-Dec-22 07:03 UTC.
Position N 35°58' W 005°32'.

Length 142 m; draft 6.1 m.

Type: Cargo ship. MMSI: 224029000.

Date/timePositionNaut miles runAvg speedWind from/ knotsBaromVisibWave heightAir tempDewpointWater temp
2014-Dec-21 01:28N 35°58' W 005°32'1617.6
2014-Dec-21 00:33N 36°05' W 005°13'20918.3
2014-Dec-20 13:06N 37°11' W 001°06'1120.3
2014-Dec-20 12:34N 37°18' W 000°55'2020.3
2014-Dec-20 11:33N 37°32' W 000°36'2019.8
2014-Dec-20 10:33N 37°48' W 000°22'13719.5
2014-Dec-20 03:32N 39°46' E 001°08'1919.8
2014-Dec-20 02:33N 40°03' E 001°20'2019.7
2014-Dec-20 01:33N 40°20' E 001°32'2120.5
2014-Dec-20 00:33N 40°39' E 001°44'2219.6
2014-Dec-19 23:26N 40°57' E 001°60'25 1.7
2014-Dec-19 09:05N 41°21' E 002°12'912.8
2014-Dec-19 08:25N 41°15' E 002°20'1618.2
2014-Dec-19 07:33N 41°04' E 002°05'1818.2
2014-Dec-19 06:33N 40°48' E 001°53'1717.1
2014-Dec-19 05:33N 40°33' E 001°43'1716.8
2014-Dec-19 04:33N 40°18' E 001°33'1717.4
2014-Dec-19 03:33N 40°02' E 001°22'1717.2
2014-Dec-19 02:33N 39°47' E 001°12'3717.4
2014-Dec-19 00:25N 39°14' E 000°49'10518.0
2014-Dec-18 18:33N 37°45' W 000°21'2218.7
2014-Dec-18 17:23N 37°27' W 000°39'1618.8
2014-Dec-18 16:33N 37°17' W 000°53'22518.8
2014-Dec-18 04:33N 35°59' W 005°16'  
2014-Dec-13 23:07N 35°57' W 005°35'916.8
2014-Dec-13 22:33N 36°01' W 005°24'26118.5
2014-Dec-13 08:26N 37°44' W 000°25'13719.5
2014-Dec-13 01:26N 39°42' E 001°05'1719.3
2014-Dec-13 00:33N 39°56' E 001°16'1919.2
2014-Dec-12 23:33N 40°14' E 001°27'1919.1
2014-Dec-12 22:33N 40°30' E 001°39'1919.2
2014-Dec-12 21:33N 40°47' E 001°51'1919.1
2014-Dec-12 20:33N 41°04' E 002°04'13 0.8
2014-Dec-12 03:28N 41°15' E 002°14'1313.6
2014-Dec-12 02:31N 41°03' E 002°05'1414.1
2014-Dec-12 01:33N 40°52' E 001°56'1413.7
2014-Dec-12 00:33N 40°40' E 001°48'1413.6
2014-Dec-11 23:33N 40°28' E 001°39'1211.8
2014-Dec-11 22:33N 40°17' E 001°32'1010.2
2014-Dec-11 21:33N 40°08' E 001°26'1010.2
2014-Dec-11 20:33N 39°59' E 001°20'1110.6
2014-Dec-11 19:33N 39°50' E 001°13'13213.1
2014-Dec-11 09:25N 37°55' W 000°12'1713.2
2014-Dec-11 08:08N 37°41' W 000°23'2915.1
2014-Dec-11 06:15N 37°21' W 000°49'  
Track history (hours):
 
Tides and Currents Weather Stations Pressure Air Temp Water Temp Dewpoint Dewpoint Depression Visibility Wind Speed Wind Dir Waves Ship Positions

Bouzas

Last reported at 2014-Dec-21 01:28 UTC. Time now 2014-Dec-22 07:03 UTC.
Position N 35°58' W 005°32'.

Length 142 m; draft 6.1 m.

Type: Cargo ship. MMSI: 224029000.

Date/timePositionNaut miles runAvg speedWind from/ knotsBaromVisibWave heightAir tempDewpointWater temp
2014-Dec-21 01:28N 35°58' W 005°32'1617.6
2014-Dec-21 00:33N 36°05' W 005°13'20918.3
2014-Dec-20 13:06N 37°11' W 001°06'1120.3
2014-Dec-20 12:34N 37°18' W 000°55'2020.3
2014-Dec-20 11:33N 37°32' W 000°36'2019.8
2014-Dec-20 10:33N 37°48' W 000°22'13719.5
2014-Dec-20 03:32N 39°46' E 001°08'1919.8
2014-Dec-20 02:33N 40°03' E 001°20'2019.7
2014-Dec-20 01:33N 40°20' E 001°32'2120.5
2014-Dec-20 00:33N 40°39' E 001°44'2219.6
2014-Dec-19 23:26N 40°57' E 001°60'25 1.7
2014-Dec-19 09:05N 41°21' E 002°12'912.8
2014-Dec-19 08:25N 41°15' E 002°20'1618.2
2014-Dec-19 07:33N 41°04' E 002°05'1818.2
2014-Dec-19 06:33N 40°48' E 001°53'1717.1
2014-Dec-19 05:33N 40°33' E 001°43'1716.8
2014-Dec-19 04:33N 40°18' E 001°33'1717.4
2014-Dec-19 03:33N 40°02' E 001°22'1717.2
2014-Dec-19 02:33N 39°47' E 001°12'3717.4
2014-Dec-19 00:25N 39°14' E 000°49'10518.0
2014-Dec-18 18:33N 37°45' W 000°21'2218.7
2014-Dec-18 17:23N 37°27' W 000°39'1618.8
2014-Dec-18 16:33N 37°17' W 000°53'22518.8
2014-Dec-18 04:33N 35°59' W 005°16'  
2014-Dec-13 23:07N 35°57' W 005°35'916.8
2014-Dec-13 22:33N 36°01' W 005°24'26118.5
2014-Dec-13 08:26N 37°44' W 000°25'13719.5
2014-Dec-13 01:26N 39°42' E 001°05'1719.3
2014-Dec-13 00:33N 39°56' E 001°16'1919.2
2014-Dec-12 23:33N 40°14' E 001°27'1919.1
2014-Dec-12 22:33N 40°30' E 001°39'1919.2
2014-Dec-12 21:33N 40°47' E 001°51'1919.1
2014-Dec-12 20:33N 41°04' E 002°04'13 0.8
2014-Dec-12 03:28N 41°15' E 002°14'1313.6
2014-Dec-12 02:31N 41°03' E 002°05'1414.1
2014-Dec-12 01:33N 40°52' E 001°56'1413.7
2014-Dec-12 00:33N 40°40' E 001°48'1413.6
2014-Dec-11 23:33N 40°28' E 001°39'1211.8
2014-Dec-11 22:33N 40°17' E 001°32'1010.2
2014-Dec-11 21:33N 40°08' E 001°26'1010.2
2014-Dec-11 20:33N 39°59' E 001°20'1110.6
2014-Dec-11 19:33N 39°50' E 001°13'13213.1
2014-Dec-11 09:25N 37°55' W 000°12'1713.2
2014-Dec-11 08:08N 37°41' W 000°23'2915.1
2014-Dec-11 06:15N 37°21' W 000°49'  

Dump ship's entire track history